Time;durP1;ratioP1;P1;durP2;ratioP2;P2;SDS_P1;SDS_P2;PMS_P1;PMS_P2;Temp;Humidity;BMP_temperature;BMP_pressure;BME280_temperature;BME280_humidity;BME280_pressure;Samples;Min_cycle;Max_cycle;Signal;HPM_P1;HPM_P2
2022/11/30 00:02:23;;;;;;;12.00;6.38;;;6.30;99.90;;;;;;5069486;28;20103;-76
2022/11/30 00:04:49;;;;;;;11.77;5.93;;;6.30;99.90;;;;;;5051275;28;20070;-75
2022/11/30 00:07:15;;;;;;;19.13;8.75;;;6.30;99.90;;;;;;5069421;28;20021;-75
2022/11/30 00:09:40;;;;;;;29.17;10.18;;;6.40;99.90;;;;;;5069389;28;20393;-75
2022/11/30 00:12:06;;;;;;;18.67;8.55;;;6.40;99.90;;;;;;5069059;28;20024;-75
2022/11/30 00:14:32;;;;;;;14.38;6.82;;;6.30;99.90;;;;;;5069378;28;20530;-75
2022/11/30 00:16:57;;;;;;;13.77;5.80;;;6.30;99.90;;;;;;5069664;28;20027;-76
2022/11/30 00:19:23;;;;;;;11.85;5.28;;;6.30;99.90;;;;;;5069304;28;20477;-74
2022/11/30 00:21:49;;;;;;;10.93;6.68;;;6.30;99.90;;;;;;5069604;28;20107;-75
2022/11/30 00:24:14;;;;;;;14.23;7.18;;;6.30;99.90;;;;;;5069468;28;20020;-75
2022/11/30 00:26:40;;;;;;;13.80;5.97;;;6.20;99.90;;;;;;5069420;28;20017;-75
2022/11/30 00:29:05;;;;;;;15.98;8.30;;;6.30;99.90;;;;;;5069275;28;20016;-75
2022/11/30 00:31:31;;;;;;;14.23;6.65;;;6.30;99.90;;;;;;5069599;28;20028;-76
2022/11/30 00:33:57;;;;;;;21.50;5.95;;;6.40;99.90;;;;;;5069165;28;20024;-75
2022/11/30 00:36:22;;;;;;;19.98;9.20;;;6.70;99.90;;;;;;5069256;28;20485;-75
2022/11/30 00:38:50;;;;;;;20.90;10.75;;;6.70;99.90;;;;;;5068848;28;20122;-75
2022/11/30 00:41:16;;;;;;;19.13;7.15;;;6.30;99.90;;;;;;5069160;28;20021;-75
2022/11/30 00:43:42;;;;;;;26.35;7.97;;;6.30;99.90;;;;;;5051000;28;20047;-76
2022/11/30 00:46:08;;;;;;;17.05;6.80;;;6.30;99.90;;;;;;5069205;28;20622;-75
2022/11/30 00:48:34;;;;;;;14.63;6.25;;;6.30;99.90;;;;;;5051002;28;20028;-75
2022/11/30 00:51:00;;;;;;;12.52;5.78;;;6.30;99.90;;;;;;5050261;28;20074;-74
2022/11/30 00:53:25;;;;;;;13.80;6.15;;;6.20;99.90;;;;;;5069164;28;20395;-75
2022/11/30 00:55:51;;;;;;;8.50;4.75;;;6.10;99.90;;;;;;5050803;28;20031;-75
2022/11/30 00:58:17;;;;;;;11.77;6.80;;;6.10;99.90;;;;;;5068708;28;20123;-75
2022/11/30 01:00:43;;;;;;;9.68;5.68;;;6.20;99.90;;;;;;5068926;28;20240;-75
2022/11/30 01:03:09;;;;;;;8.13;4.88;;;6.70;99.90;;;;;;5068796;28;20029;-75
2022/11/30 01:05:35;;;;;;;7.75;4.70;;;6.20;99.90;;;;;;5068884;28;20086;-75
2022/11/30 01:08:03;;;;;;;11.15;5.30;;;6.20;99.90;;;;;;5050951;28;20045;-75
2022/11/30 01:10:29;;;;;;;11.27;6.25;;;6.10;99.90;;;;;;5050924;28;20017;-75
2022/11/30 01:12:55;;;;;;;11.77;7.10;;;6.10;99.90;;;;;;5068787;28;20052;-75
2022/11/30 01:15:21;;;;;;;10.77;5.45;;;6.20;99.90;;;;;;5068805;28;20028;-75
2022/11/30 01:17:47;;;;;;;11.18;6.85;;;;;;;;;;5068636;28;20090;-75
2022/11/30 01:20:12;;;;;;;12.02;7.95;;;6.20;99.90;;;;;;5050370;28;20017;-75
2022/11/30 01:22:38;;;;;;;14.07;6.35;;;6.20;99.90;;;;;;5050805;28;20385;-75
2022/11/30 01:25:04;;;;;;;12.02;6.50;;;6.20;99.90;;;;;;5072205;28;20024;-75
2022/11/30 01:27:30;;;;;;;14.85;6.28;;;6.20;99.90;;;;;;5054375;28;20406;-75
2022/11/30 01:29:56;;;;;;;15.63;8.63;;;6.60;99.90;;;;;;5072439;28;20052;-76
2022/11/30 01:32:21;;;;;;;13.30;6.43;;;6.20;99.90;;;;;;5054433;28;20039;-75
2022/11/30 01:34:47;;;;;;;14.18;6.68;;;6.20;99.90;;;;;;5071962;28;20504;-75
2022/11/30 01:37:13;;;;;;;16.17;6.97;;;6.10;99.90;;;;;;5072165;28;20031;-75
2022/11/30 01:39:38;;;;;;;10.80;5.38;;;6.50;99.90;;;;;;5072276;28;20115;-76
2022/11/30 01:42:11;;;;;;;19.27;6.50;;;6.10;99.90;;;;;;5071825;28;20384;-75
2022/11/30 01:44:58;;;;;;;14.20;7.97;;;6.50;99.90;;;;;;5071760;28;20477;-76
2022/11/30 01:47:30;;;;;;;13.95;6.90;;;6.20;99.90;;;;;;5071971;28;20086;-75
2022/11/30 01:50:14;;;;;;;16.38;6.32;;;6.20;99.90;;;;;;5071638;28;20021;-75
2022/11/30 01:52:43;;;;;;;16.02;7.10;;;6.10;99.90;;;;;;5053929;28;20072;-76
2022/11/30 01:55:19;;;;;;;11.68;6.90;;;6.10;99.90;;;;;;5071717;28;20477;-75
2022/11/30 01:57:59;;;;;;;11.32;6.22;;;6.10;99.90;;;;;;5072039;28;20029;-76
2022/11/30 02:00:25;;;;;;;11.07;5.95;;;6.10;99.90;;;;;;5053620;28;20027;-75
2022/11/30 02:02:59;;;;;;;11.10;6.55;;;6.20;99.90;;;;;;5071663;28;20028;-76
2022/11/30 02:05:26;;;;;;;12.90;5.68;;;6.10;99.90;;;;;;5071481;28;20021;-75
2022/11/30 02:07:52;;;;;;;13.02;6.38;;;6.10;99.90;;;;;;5071393;28;20533;-75
2022/11/30 02:10:23;;;;;;;11.75;5.65;;;6.10;99.90;;;;;;5071323;28;20123;-76
2022/11/30 02:13:16;;;;;;;12.45;7.00;;;6.10;99.90;;;;;;5071697;28;20032;-75
2022/11/30 02:16:14;;;;;;;14.82;6.82;;;6.10;99.90;;;;;;5071300;28;20048;-75
2022/11/30 02:18:59;;;;;;;13.95;6.85;;;6.20;99.90;;;;;;5052954;28;20071;-75
2022/11/30 02:21:36;;;;;;;10.65;5.63;;;6.10;99.90;;;;;;5052988;28;20028;-76
2022/11/30 02:24:26;;;;;;;8.60;4.93;;;6.10;99.90;;;;;;5071092;28;20612;-75
2022/11/30 02:27:10;;;;;;;15.30;7.53;;;6.10;99.90;;;;;;5071394;28;20035;-75
2022/11/30 02:29:54;;;;;;;11.95;6.40;;;6.10;99.90;;;;;;5071011;28;20078;-75
2022/11/30 02:32:39;;;;;;;14.15;7.95;;;6.10;99.90;;;;;;5071050;28;20535;-75
2022/11/30 02:35:06;;;;;;;8.90;6.40;;;6.10;99.90;;;;;;5070560;28;20103;-75
2022/11/30 02:37:34;;;;;;;13.63;7.28;;;6.10;99.90;;;;;;5071210;28;20048;-75
2022/11/30 02:40:00;;;;;;;12.00;6.45;;;6.20;99.90;;;;;;5070923;28;20186;-76
2022/11/30 02:42:25;;;;;;;13.65;7.15;;;6.50;99.90;;;;;;5070946;28;20102;-75
2022/11/30 02:44:53;;;;;;;17.83;7.90;;;6.20;99.90;;;;;;5071261;28;20417;-75
2022/11/30 02:47:28;;;;;;;17.42;7.45;;;6.20;99.90;;;;;;5070511;28;20025;-76
2022/11/30 02:50:03;;;;;;;16.42;8.50;;;6.20;99.90;;;;;;5070308;28;20032;-75
2022/11/30 02:52:30;;;;;;;23.90;7.22;;;6.10;99.90;;;;;;5070180;28;20048;-76
2022/11/30 02:55:05;;;;;;;11.07;6.50;;;6.10;99.90;;;;;;5070505;28;20013;-75
2022/11/30 02:57:31;;;;;;;16.90;7.57;;;6.20;99.90;;;;;;5070223;28;20040;-76
2022/11/30 02:59:57;;;;;;;15.02;8.00;;;6.20;99.90;;;;;;5070467;28;20095;-75
2022/11/30 03:02:23;;;;;;;14.05;7.88;;;6.90;99.90;;;;;;5070710;28;20267;-75
2022/11/30 03:04:48;;;;;;;17.58;8.50;;;6.20;99.90;;;;;;5070156;28;20294;-75
2022/11/30 03:07:14;;;;;;;15.27;7.38;;;6.20;99.90;;;;;;5070421;28;20450;-75
2022/11/30 03:09:40;;;;;;;16.45;7.57;;;6.30;99.90;;;;;;5070371;28;20427;-75
2022/11/30 03:12:05;;;;;;;16.95;7.57;;;6.50;99.90;;;;;;5052846;28;20028;-75
2022/11/30 03:14:31;;;;;;;19.20;8.35;;;6.20;99.90;;;;;;5070405;28;20119;-75
2022/11/30 03:16:57;;;;;;;15.65;7.63;;;6.40;99.90;;;;;;5070278;28;20412;-75
2022/11/30 03:19:23;;;;;;;19.42;8.52;;;6.30;99.90;;;;;;5070165;28;20032;-75
2022/11/30 03:21:48;;;;;;;15.10;8.18;;;6.20;99.90;;;;;;5070213;28;20021;-75
2022/11/30 03:24:14;;;;;;;19.40;8.02;;;6.20;99.90;;;;;;5070102;28;20389;-75
2022/11/30 03:26:39;;;;;;;15.82;7.40;;;6.30;99.90;;;;;;5052237;28;20063;-75
2022/11/30 03:29:05;;;;;;;16.25;8.32;;;6.30;99.90;;;;;;5070613;28;20029;-75
2022/11/30 03:31:31;;;;;;;17.52;8.98;;;6.30;99.90;;;;;;5070391;28;20035;-75
2022/11/30 03:33:57;;;;;;;17.27;8.18;;;6.30;99.90;;;;;;5070033;28;20028;-75
2022/11/30 03:36:22;;;;;;;18.25;10.77;;;6.30;99.90;;;;;;5069889;28;20081;-76
2022/11/30 03:38:48;;;;;;;21.00;10.63;;;6.30;99.90;;;;;;5069956;28;20531;-75
2022/11/30 03:41:15;;;;;;;21.85;8.60;;;6.30;99.90;;;;;;5069931;28;20304;-75
2022/11/30 03:43:42;;;;;;;17.35;7.85;;;6.40;99.90;;;;;;5070125;28;20031;-75
2022/11/30 03:46:08;;;;;;;15.77;8.50;;;6.30;99.90;;;;;;5069450;28;20048;-76
2022/11/30 03:48:36;;;;;;;18.25;8.25;;;6.30;99.90;;;;;;5069803;28;20062;-75
2022/11/30 03:51:03;;;;;;;18.48;7.35;;;6.30;99.90;;;;;;5069726;28;20055;-75
2022/11/30 03:53:29;;;;;;;19.00;8.35;;;6.30;99.90;;;;;;5069697;28;20060;-76
2022/11/30 03:55:57;;;;;;;21.73;10.68;;;6.40;99.90;;;;;;5069505;28;20052;-75
2022/11/30 03:58:23;;;;;;;22.48;10.38;;;6.40;99.90;;;;;;5069511;28;20039;-75
2022/11/30 04:00:50;;;;;;;22.73;10.50;;;;;;;;;;5069942;28;20031;-75
2022/11/30 04:03:15;;;;;;;23.63;8.93;;;6.30;99.90;;;;;;5068604;28;20048;-75
2022/11/30 04:05:42;;;;;;;25.77;10.05;;;6.40;99.90;;;;;;5051386;28;20043;-75
2022/11/30 04:08:07;;;;;;;17.98;10.30;;;6.40;99.90;;;;;;5069848;28;20051;-75
2022/11/30 04:10:33;;;;;;;17.08;8.57;;;6.40;99.90;;;;;;5069987;28;20059;-76
2022/11/30 04:12:59;;;;;;;20.92;8.57;;;6.40;99.90;;;;;;5069362;28;20344;-75
2022/11/30 04:15:24;;;;;;;17.77;9.88;;;6.30;99.90;;;;;;5051413;28;20427;-76
2022/11/30 04:17:50;;;;;;;21.85;10.20;;;6.30;99.90;;;;;;5051379;28;20071;-75
2022/11/30 04:20:16;;;;;;;15.07;8.23;;;6.40;99.90;;;;;;5069271;28;20362;-75
2022/11/30 04:22:41;;;;;;;14.73;8.10;;;6.30;99.90;;;;;;5069562;28;20028;-75
2022/11/30 04:25:07;;;;;;;22.63;10.32;;;6.40;99.90;;;;;;5069594;28;20158;-76
2022/11/30 04:27:33;;;;;;;26.52;10.13;;;6.40;99.90;;;;;;5051603;28;20162;-75
2022/11/30 04:29:58;;;;;;;18.25;9.38;;;6.50;99.90;;;;;;5069468;28;20470;-75
2022/11/30 04:32:24;;;;;;;17.00;9.35;;;6.40;99.90;;;;;;5069228;28;20549;-75
2022/11/30 04:34:50;;;;;;;21.17;10.00;;;6.40;99.90;;;;;;5069155;28;20435;-75
2022/11/30 04:37:15;;;;;;;27.42;10.65;;;6.50;99.90;;;;;;5069328;28;20063;-75
2022/11/30 04:39:41;;;;;;;20.60;10.57;;;6.40;99.90;;;;;;5069544;28;20055;-75
2022/11/30 04:42:06;;;;;;;17.48;9.00;;;6.40;99.90;;;;;;5069474;28;20496;-76
2022/11/30 04:44:32;;;;;;;22.65;10.10;;;6.40;99.90;;;;;;5068965;28;20032;-75
2022/11/30 04:46:58;;;;;;;21.52;9.52;;;6.40;99.90;;;;;;5069392;28;20020;-75
2022/11/30 04:49:23;;;;;;;20.83;9.18;;;6.40;99.90;;;;;;5069010;28;20108;-75
2022/11/30 04:51:49;;;;;;;15.85;8.45;;;6.40;99.90;;;;;;5069386;28;20040;-75
2022/11/30 04:54:14;;;;;;;19.10;10.45;;;6.40;99.90;;;;;;5051079;28;20025;-76
2022/11/30 04:56:40;;;;;;;24.73;10.52;;;6.30;99.90;;;;;;5051435;28;20550;-75
2022/11/30 04:59:05;;;;;;;21.65;10.30;;;6.40;99.90;;;;;;5073307;28;20032;-75
2022/11/30 05:01:31;;;;;;;15.90;8.80;;;6.30;99.90;;;;;;5055184;28;20029;-75
2022/11/30 05:03:58;;;;;;;19.17;8.65;;;6.40;99.90;;;;;;5073191;28;20342;-76
2022/11/30 05:06:25;;;;;;;14.57;8.18;;;6.40;99.90;;;;;;5054508;28;20465;-75
2022/11/30 05:08:50;;;;;;;16.92;8.18;;;6.30;99.90;;;;;;5072976;28;20099;-75
2022/11/30 05:11:16;;;;;;;16.52;7.70;;;6.50;99.90;;;;;;5072830;28;20029;-75
2022/11/30 05:13:42;;;;;;;15.02;8.70;;;6.30;99.90;;;;;;5073099;28;20031;-75
2022/11/30 05:16:09;;;;;;;11.95;7.13;;;6.20;99.90;;;;;;5072830;28;20097;-75
2022/11/30 05:18:35;;;;;;;16.35;7.85;;;6.20;99.90;;;;;;5072553;28;20032;-76
2022/11/30 05:21:01;;;;;;;15.75;8.35;;;6.30;99.90;;;;;;5072185;28;20028;-76
2022/11/30 05:23:27;;;;;;;14.27;8.68;;;6.30;99.90;;;;;;5071463;28;20030;-76
2022/11/30 05:25:53;;;;;;;19.52;9.95;;;6.30;99.90;;;;;;5072647;28;20110;-76
2022/11/30 05:28:18;;;;;;;17.63;8.55;;;6.20;99.90;;;;;;5073608;28;20488;-76
2022/11/30 05:30:44;;;;;;;16.73;9.38;;;6.20;99.90;;;;;;5091805;28;20531;-76
2022/11/30 05:33:10;;;;;;;19.35;10.32;;;6.20;99.90;;;;;;5083426;28;20107;-77
2022/11/30 05:35:36;;;;;;;17.25;7.82;;;6.30;99.90;;;;;;5070496;28;20020;-77
2022/11/30 05:38:02;;;;;;;15.93;7.50;;;6.30;99.90;;;;;;5051866;28;20048;-76
2022/11/30 05:40:29;;;;;;;20.60;9.00;;;6.40;99.90;;;;;;5069186;28;20047;-76
2022/11/30 05:42:59;;;;;;;15.77;9.60;;;7.80;99.90;;;;;;5069779;28;20021;-75
2022/11/30 05:45:25;;;;;;;21.65;9.50;;;6.30;99.90;;;;;;5069624;28;20028;-76
2022/11/30 05:47:51;;;;;;;13.52;8.75;;;6.30;99.90;;;;;;5069419;28;20024;-75
2022/11/30 05:50:17;;;;;;;16.75;9.38;;;6.30;99.90;;;;;;5051111;28;20070;-76
2022/11/30 05:52:42;;;;;;;23.42;10.35;;;6.30;99.90;;;;;;5069813;28;20477;-76
2022/11/30 05:55:08;;;;;;;22.52;9.85;;;6.30;99.90;;;;;;5069462;28;20016;-75
2022/11/30 05:57:40;;;;;;;17.50;8.25;;;6.40;99.90;;;;;;5069218;28;20028;-75
2022/11/30 06:00:08;;;;;;;14.43;9.25;;;6.30;99.90;;;;;;5069086;28;20028;-75
2022/11/30 06:02:34;;;;;;;16.15;8.80;;;6.30;99.90;;;;;;5069032;28;20043;-76
2022/11/30 06:05:00;;;;;;;18.48;7.80;;;6.30;99.90;;;;;;5050633;28;20059;-75
2022/11/30 06:07:25;;;;;;;21.95;10.40;;;6.30;99.90;;;;;;5069023;28;20100;-75
2022/11/30 06:09:51;;;;;;;19.55;11.65;;;6.70;99.90;;;;;;5068290;28;20659;-76
2022/11/30 06:12:17;;;;;;;20.17;10.13;;;6.50;99.90;;;;;;5051154;28;20032;-76
2022/11/30 06:14:42;;;;;;;16.60;9.18;;;6.40;99.90;;;;;;5068955;28;20103;-76
2022/11/30 06:17:08;;;;;;;19.83;9.65;;;6.30;99.90;;;;;;5068877;28;20051;-75
2022/11/30 06:19:34;;;;;;;25.50;10.32;;;6.20;99.90;;;;;;5078428;28;20016;-76
2022/11/30 06:21:59;;;;;;;16.40;9.98;;;8.70;99.90;;;;;;5088800;28;20021;-76
2022/11/30 06:24:25;;;;;;;21.77;8.93;;;6.20;99.90;;;;;;5088791;28;20032;-75
2022/11/30 06:26:54;;;;;;;18.58;8.13;;;6.20;99.90;;;;;;5089545;28;20024;-79
2022/11/30 06:29:19;;;;;;;21.95;9.63;;;6.10;99.90;;;;;;5085878;28;20052;-76
2022/11/30 06:31:45;;;;;;;16.60;8.15;;;6.10;99.90;;;;;;5087373;28;20067;-76
2022/11/30 06:34:10;;;;;;;20.40;10.60;;;6.10;99.90;;;;;;5088322;28;20451;-75
2022/11/30 06:36:36;;;;;;;23.42;9.60;;;6.20;99.90;;;;;;5070554;28;20030;-76
2022/11/30 06:39:03;;;;;;;22.10;10.45;;;6.00;99.90;;;;;;5088639;28;20043;-75
2022/11/30 06:41:28;;;;;;;21.10;10.63;;;6.10;99.90;;;;;;5070104;28;20088;-76
2022/11/30 06:43:54;;;;;;;19.30;9.23;;;6.00;99.90;;;;;;5069887;28;20028;-75
2022/11/30 06:46:21;;;;;;;21.10;10.85;;;6.20;99.90;;;;;;5070112;28;20036;-76
2022/11/30 06:48:49;;;;;;;21.67;9.40;;;6.20;99.90;;;;;;5070148;28;20024;-77
2022/11/30 06:51:15;;;;;;;25.15;11.05;;;6.00;99.90;;;;;;5087582;28;20131;-76
2022/11/30 06:53:43;;;;;;;17.27;8.90;;;6.00;99.90;;;;;;5087793;28;20533;-76
2022/11/30 06:56:08;;;;;;;20.77;10.30;;;6.00;99.90;;;;;;5088399;28;20054;-77
2022/11/30 06:58:35;;;;;;;19.17;9.57;;;6.00;99.90;;;;;;5069613;28;20036;-76
2022/11/30 07:01:02;;;;;;;15.02;9.25;;;6.30;99.90;;;;;;5070399;28;20032;-76
2022/11/30 07:03:28;;;;;;;22.08;9.73;;;6.00;99.90;;;;;;5088695;28;20081;-76
2022/11/30 07:05:53;;;;;;;24.77;10.98;;;6.00;99.90;;;;;;5069629;28;20415;-77
2022/11/30 07:08:19;;;;;;;22.27;9.80;;;6.20;99.90;;;;;;5087768;28;20020;-75
2022/11/30 07:10:46;;;;;;;24.10;10.02;;;6.00;99.90;;;;;;5057648;28;20032;-75
2022/11/30 07:13:14;;;;;;;18.70;11.25;;;6.20;99.90;;;;;;5049489;28;20116;-76
2022/11/30 07:15:40;;;;;;;25.33;10.82;;;6.00;99.90;;;;;;5067357;28;20047;-76
2022/11/30 07:18:07;;;;;;;21.67;10.50;;;6.00;99.90;;;;;;5067089;28;20493;-76
2022/11/30 07:20:33;;;;;;;25.83;11.70;;;6.50;99.90;;;;;;5084237;28;20050;-75
2022/11/30 07:26:05;;;;;;;20.55;10.15;;;6.10;99.90;;;;;;5087675;28;20836;-77
2022/11/30 07:28:28;;;;;;;25.88;10.30;;;6.50;99.90;;;;;;5088122;28;20043;-76
2022/11/30 07:30:54;;;;;;;23.63;12.05;;;6.30;99.90;;;;;;5087500;28;20020;-76
2022/11/30 07:33:19;;;;;;;40.08;12.95;;;6.50;99.90;;;;;;5069286;28;20537;-76
2022/11/30 07:35:45;;;;;;;23.90;10.30;;;6.40;99.90;;;;;;5087009;28;20032;-76
2022/11/30 07:38:11;;;;;;;27.58;10.05;;;6.10;99.90;;;;;;5087623;28;20332;-75
2022/11/30 07:40:37;;;;;;;21.20;10.10;;;6.10;99.90;;;;;;5087435;28;20293;-76
2022/11/30 07:43:02;;;;;;;28.27;12.02;;;8.20;99.90;;;;;;5069312;28;20399;-75
2022/11/30 07:45:28;;;;;;;23.33;11.48;;;6.10;99.90;;;;;;5087456;28;20020;-76
2022/11/30 07:47:54;;;;;;;23.63;9.38;;;6.00;99.90;;;;;;5087028;28;20480;-76
2022/11/30 07:50:19;;;;;;;20.08;9.50;;;6.30;99.90;;;;;;5068664;28;20416;-76
2022/11/30 07:52:45;;;;;;;24.67;10.07;;;6.20;99.90;;;;;;5087041;28;20075;-76
2022/11/30 07:55:10;;;;;;;25.75;11.77;;;6.00;99.90;;;;;;5086965;28;20058;-76
2022/11/30 07:57:36;;;;;;;24.83;10.45;;;6.20;99.90;;;;;;5069131;28;20056;-76
2022/11/30 08:00:02;;;;;;;23.83;10.48;;;6.00;99.90;;;;;;5068727;28;20036;-76
2022/11/30 08:02:28;;;;;;;38.72;13.70;;;6.00;99.90;;;;;;5068811;28;20027;-75
2022/11/30 08:04:57;;;;;;;21.85;11.55;;;6.00;99.90;;;;;;5086534;28;20047;-75
2022/11/30 08:07:23;;;;;;;25.53;11.37;;;6.00;99.90;;;;;;5068674;28;20031;-76
2022/11/30 08:09:49;;;;;;;32.60;10.40;;;6.10;99.90;;;;;;5086360;28;20339;-76
2022/11/30 08:12:14;;;;;;;29.25;11.68;;;6.00;99.90;;;;;;5086739;28;20020;-76
2022/11/30 08:14:40;;;;;;;33.03;13.05;;;6.00;99.90;;;;;;5087041;28;20183;-76
2022/11/30 08:17:08;;;;;;;28.30;12.55;;;6.00;99.90;;;;;;5086825;28;20062;-76
2022/11/30 08:19:34;;;;;;;23.05;10.98;;;;;;;;;;5076393;28;20039;-76
2022/11/30 08:21:59;;;;;;;33.05;10.48;;;6.10;99.90;;;;;;5066445;28;20021;-75
2022/11/30 08:24:25;;;;;;;26.90;12.20;;;6.10;99.90;;;;;;5066433;28;20060;-76
2022/11/30 08:26:51;;;;;;;26.42;11.68;;;6.10;99.90;;;;;;5066814;28;20013;-76
2022/11/30 08:29:17;;;;;;;24.45;12.85;;;6.10;99.90;;;;;;5048856;28;20037;-76
2022/11/30 08:31:43;;;;;;;25.38;10.90;;;6.10;99.90;;;;;;5048287;28;20141;-76
2022/11/30 08:34:11;;;;;;;25.33;13.77;;;6.10;99.90;;;;;;5070496;28;20039;-76
2022/11/30 08:36:38;;;;;;;29.55;13.15;;;6.20;99.90;;;;;;5052599;28;20496;-76
2022/11/30 08:39:06;;;;;;;25.75;11.85;;;6.10;99.90;;;;;;5052293;28;20036;-76
2022/11/30 08:41:33;;;;;;;26.95;13.07;;;6.10;99.90;;;;;;5070699;28;20021;-76
2022/11/30 08:43:59;;;;;;;27.48;12.77;;;6.20;99.90;;;;;;5052329;28;20028;-76
2022/11/30 08:46:25;;;;;;;27.05;12.73;;;6.20;99.90;;;;;;5070153;28;20107;-76
2022/11/30 08:48:51;;;;;;;28.60;13.20;;;6.30;99.90;;;;;;5052381;28;20036;-76
2022/11/30 08:51:18;;;;;;;30.00;12.60;;;6.30;99.90;;;;;;5069851;28;20392;-76
2022/11/30 08:53:45;;;;;;;23.35;9.98;;;6.20;99.90;;;;;;5052094;28;20495;-76
2022/11/30 08:56:14;;;;;;;22.88;10.38;;;6.20;99.90;;;;;;5070279;28;20016;-75
2022/11/30 08:58:40;;;;;;;31.92;13.15;;;6.20;99.90;;;;;;5070440;28;20112;-76
2022/11/30 09:01:19;;;;;;;17.92;9.93;;;6.30;99.90;;;;;;5052134;28;20029;-76
2022/11/30 09:03:46;;;;;;;20.63;11.00;;;6.30;99.90;;;;;;5051872;28;20406;-76
2022/11/30 09:06:15;;;;;;;37.92;12.90;;;6.20;99.90;;;;;;5069778;28;20031;-76
2022/11/30 09:08:43;;;;;;;29.45;13.45;;;6.10;99.90;;;;;;5052263;28;20086;-76
2022/11/30 09:11:15;;;;;;;25.05;9.82;;;6.50;99.90;;;;;;5051822;28;20025;-76
2022/11/30 09:13:42;;;;;;;25.40;9.80;;;6.10;99.90;;;;;;5051814;28;20024;-76
2022/11/30 09:16:09;;;;;;;24.13;9.65;;;6.10;99.90;;;;;;5051781;28;20060;-76
2022/11/30 09:18:34;;;;;;;25.17;10.18;;;6.10;99.90;;;;;;5053329;28;20041;-76
2022/11/30 09:21:02;;;;;;;27.85;11.55;;;6.10;99.90;;;;;;5071617;28;20020;-76
2022/11/30 09:23:28;;;;;;;24.33;10.70;;;6.20;99.90;;;;;;5071492;28;20028;-76
2022/11/30 09:25:56;;;;;;;24.85;11.18;;;6.20;99.90;;;;;;5089991;28;20034;-75
2022/11/30 09:28:21;;;;;;;30.48;13.93;;;6.20;99.90;;;;;;5071834;28;20067;-76
2022/11/30 09:30:48;;;;;;;19.90;9.88;;;6.10;99.90;;;;;;5089817;28;20020;-76
2022/11/30 09:33:14;;;;;;;27.00;12.02;;;6.10;99.90;;;;;;5089743;28;20077;-77
2022/11/30 09:35:39;;;;;;;26.52;9.68;;;6.10;99.90;;;;;;5089644;28;20019;-76
2022/11/30 09:38:05;;;;;;;25.33;12.90;;;6.20;99.90;;;;;;5089566;28;20428;-76
2022/11/30 09:40:33;;;;;;;24.88;9.15;;;6.20;99.90;;;;;;5089762;28;20039;-76
2022/11/30 09:43:22;;;;;;;24.88;11.63;;;6.30;99.90;;;;;;5090002;28;20020;-76
2022/11/30 09:46:00;;;;;;;17.35;8.35;;;6.30;99.90;;;;;;5041605;28;20477;-75
2022/11/30 09:48:46;;;;;;;21.52;10.25;;;6.40;99.90;;;;;;5071056;28;20302;-76
2022/11/30 09:51:21;;;;;;;25.50;10.20;;;6.50;99.90;;;;;;5089221;28;20028;-76
2022/11/30 09:54:10;;;;;;;27.90;10.93;;;6.50;99.90;;;;;;5071197;28;20054;-76
2022/11/30 09:56:39;;;;;;;21.67;9.73;;;6.50;99.90;;;;;;5089081;28;20024;-76
2022/11/30 09:59:28;;;;;;;28.42;10.77;;;6.50;99.90;;;;;;5089827;28;20036;-76
2022/11/30 10:01:56;;;;;;;20.45;9.80;;;6.50;99.90;;;;;;5070770;28;20111;-75
2022/11/30 10:04:26;;;;;;;21.35;10.05;;;6.60;99.90;;;;;;5088827;28;20524;-76
2022/11/30 10:07:01;;;;;;;24.15;8.82;;;6.50;99.90;;;;;;5089266;28;20127;-83
2022/11/30 10:09:42;;;;;;;20.70;9.38;;;6.60;99.90;;;;;;5071055;28;20028;-76
2022/11/30 10:12:23;;;;;;;17.35;8.23;;;6.50;99.90;;;;;;5070922;28;20536;-75
2022/11/30 10:15:13;;;;;;;21.70;9.77;;;6.50;99.90;;;;;;5089381;28;20031;-76
2022/11/30 10:17:48;;;;;;;24.10;9.95;;;6.50;99.90;;;;;;5071057;28;20032;-83
2022/11/30 10:20:25;;;;;;;23.23;11.18;;;6.50;99.90;;;;;;5055278;28;20043;-77
2022/11/30 10:23:17;;;;;;;22.20;10.57;;;6.60;99.90;;;;;;5069224;28;20033;-77
2022/11/30 10:25:53;;;;;;;17.90;9.02;;;6.70;99.90;;;;;;5050508;28;20032;-81
2022/11/30 10:28:51;;;;;;;17.55;7.63;;;6.80;99.90;;;;;;5068555;28;20056;-77
2022/11/30 10:31:19;;;;;;;22.98;9.25;;;6.60;99.90;;;;;;5068730;28;20066;-76
2022/11/30 10:33:53;;;;;;;22.45;10.18;;;6.60;99.90;;;;;;5050032;28;20027;-76
2022/11/30 10:36:33;;;;;;;20.25;10.13;;;6.60;99.90;;;;;;5069739;28;20078;-82
2022/11/30 10:39:04;;;;;;;23.30;11.52;;;6.70;99.90;;;;;;5050763;28;20506;-75
2022/11/30 10:41:36;;;;;;;17.08;8.45;;;6.70;99.90;;;;;;5068245;28;20418;-77
2022/11/30 10:44:21;;;;;;;19.98;8.98;;;6.70;99.90;;;;;;5048975;28;20032;-76
2022/11/30 10:47:23;;;;;;;25.13;10.57;;;6.70;99.90;;;;;;5050043;28;20077;-76
2022/11/30 10:49:51;;;;;;;15.48;8.07;;;6.70;99.90;;;;;;5067591;28;20202;-76
2022/11/30 10:52:31;;;;;;;28.33;10.45;;;6.80;99.90;;;;;;5049540;28;20071;-76
2022/11/30 10:54:57;;;;;;;25.13;10.70;;;6.90;99.90;;;;;;5049411;28;20021;-76
2022/11/30 10:57:29;;;;;;;16.85;8.73;;;7.10;99.90;;;;;;5050031;28;20054;-76
2022/11/30 11:00:01;;;;;;;24.83;11.45;;;7.20;99.90;;;;;;5050226;28;20230;-76
2022/11/30 11:02:47;;;;;;;16.77;7.90;;;7.30;99.90;;;;;;5068162;28;20024;-76
2022/11/30 11:05:23;;;;;;;29.27;9.07;;;7.30;99.90;;;;;;5049672;28;20035;-76
2022/11/30 11:07:51;;;;;;;23.10;7.97;;;7.20;99.90;;;;;;5049314;28;20310;-76
2022/11/30 11:10:29;;;;;;;16.03;8.10;;;7.30;99.90;;;;;;5049464;28;20024;-77
2022/11/30 11:12:56;;;;;;;16.75;7.70;;;7.30;99.90;;;;;;5069303;28;20081;-75
2022/11/30 11:15:29;;;;;;;13.35;6.03;;;7.30;99.90;;;;;;5069244;28;20028;-76
2022/11/30 11:18:14;;;;;;;13.75;7.10;;;7.30;99.90;;;;;;5068140;28;20032;-76
2022/11/30 11:20:43;;;;;;;15.38;7.90;;;7.40;99.90;;;;;;5068143;28;20035;-76
2022/11/30 11:23:29;;;;;;;15.45;9.25;;;7.40;99.90;;;;;;5049051;28;20029;-76
2022/11/30 11:25:56;;;;;;;12.45;5.60;;;7.30;99.90;;;;;;5067491;28;20383;-76
2022/11/30 11:28:23;;;;;;;19.45;7.15;;;7.20;99.90;;;;;;5048950;28;20033;-76
2022/11/30 11:30:55;;;;;;;13.85;7.35;;;7.20;99.90;;;;;;5048993;28;20449;-75
2022/11/30 11:33:24;;;;;;;13.85;7.80;;;7.10;99.90;;;;;;5063914;28;20132;-76
2022/11/30 11:35:52;;;;;;;13.43;6.57;;;7.10;99.90;;;;;;5068806;28;20089;-76
2022/11/30 11:38:25;;;;;;;13.30;7.40;;;6.90;99.90;;;;;;5087545;28;20502;-75
2022/11/30 11:41:21;;;;;;;17.48;8.50;;;6.90;99.90;;;;;;5068962;28;20028;-76
2022/11/30 11:44:08;;;;;;;19.70;8.52;;;6.70;99.90;;;;;;5068666;28;20622;-76
2022/11/30 11:47:01;;;;;;;17.60;7.80;;;6.70;99.90;;;;;;5069900;28;20028;-75
2022/11/30 11:49:37;;;;;;;14.85;7.55;;;6.70;99.90;;;;;;5068617;28;20027;-77
2022/11/30 11:52:12;;;;;;;24.70;11.43;;;6.70;99.90;;;;;;5068704;28;20051;-76
2022/11/30 11:54:52;;;;;;;24.95;10.82;;;6.70;99.90;;;;;;5087274;28;20024;-76
2022/11/30 11:57:24;;;;;;;13.55;6.65;;;6.60;99.90;;;;;;5068984;28;20139;-76
2022/11/30 11:59:57;;;;;;;15.00;7.90;;;6.60;99.90;;;;;;5068610;28;20036;-76
2022/11/30 12:02:51;;;;;;;13.55;5.35;;;6.50;99.90;;;;;;5068801;28;20097;-76
2022/11/30 12:05:31;;;;;;;21.70;9.52;;;6.50;99.90;;;;;;5084624;28;20039;-77
2022/11/30 12:08:05;;;;;;;18.30;9.20;;;6.60;99.90;;;;;;5070717;28;20028;-76
2022/11/30 12:10:38;;;;;;;15.95;6.55;;;6.60;99.90;;;;;;5054041;28;20024;-76
2022/11/30 12:13:17;;;;;;;18.08;8.63;;;6.60;99.90;;;;;;5065554;28;20037;-77
2022/11/30 12:15:57;;;;;;;20.13;6.70;;;6.60;99.90;;;;;;5047587;28;20216;-76
2022/11/30 12:18:36;;;;;;;17.27;6.63;;;6.60;99.90;;;;;;5047926;28;20454;-76
2022/11/30 12:21:12;;;;;;;16.30;8.65;;;6.60;99.90;;;;;;5085575;28;20024;-77
2022/11/30 12:23:56;;;;;;;17.55;8.40;;;6.50;99.90;;;;;;5068780;28;20033;-77
2022/11/30 12:26:39;;;;;;;17.80;8.85;;;6.60;99.90;;;;;;5066961;28;20094;-77
2022/11/30 12:29:22;;;;;;;17.52;7.97;;;6.60;99.90;;;;;;5048399;28;20028;-76
2022/11/30 12:32:12;;;;;;;17.45;7.50;;;6.70;99.90;;;;;;5048471;28;20028;-77
2022/11/30 12:34:56;;;;;;;16.67;7.38;;;6.80;99.90;;;;;;5048173;28;20025;-76
2022/11/30 12:38:03;;;;;;;11.55;5.70;;;7.00;99.90;;;;;;5048475;28;20056;-77
2022/11/30 12:40:53;;;;;;;12.98;7.47;;;7.10;99.90;;;;;;5031628;28;20085;-77
2022/11/30 12:43:29;;;;;;;14.35;5.47;;;6.30;99.90;;;;;;5065737;28;20532;-75
2022/11/30 12:46:06;;;;;;;9.02;6.13;;;7.30;99.90;;;;;;5066830;28;20031;-76
2022/11/30 12:48:59;;;;;;;8.10;4.10;;;7.10;99.90;;;;;;5066236;28;20025;-75
2022/11/30 12:51:56;;;;;;;11.85;5.63;;;7.60;99.90;;;;;;5044089;28;20044;-76
2022/11/30 12:54:27;;;;;;;9.85;5.07;;;7.80;99.90;;;;;;5045199;28;20036;-76
2022/11/30 12:57:08;;;;;;;8.32;4.18;;;7.80;99.90;;;;;;5044998;28;20474;-76
2022/11/30 13:00:15;;;;;;;5.63;3.65;;;7.80;99.90;;;;;;5044945;28;20120;-77
2022/11/30 13:03:09;;;;;;;8.52;4.22;;;7.90;99.90;;;;;;5011253;28;20414;-76
2022/11/30 13:05:41;;;;;;;7.15;3.55;;;8.00;99.90;;;;;;5044676;28;20029;-77